sensor_id;sensor_type;location;lat;lon;timestamp;temperature;humidity
68578;SHT31;61668;45.388;11.784;2023-04-29T00:02:01;12.83;78.10
68578;SHT31;61668;45.388;11.784;2023-04-29T00:04:26;12.80;78.21
68578;SHT31;61668;45.388;11.784;2023-04-29T00:06:52;12.77;78.29
68578;SHT31;61668;45.388;11.784;2023-04-29T00:09:18;12.75;78.30
68578;SHT31;61668;45.388;11.784;2023-04-29T00:11:43;12.74;78.31
68578;SHT31;61668;45.388;11.784;2023-04-29T00:14:09;12.72;78.32
68578;SHT31;61668;45.388;11.784;2023-04-29T00:16:34;12.73;78.33
68578;SHT31;61668;45.388;11.784;2023-04-29T00:19:00;12.72;78.28
68578;SHT31;61668;45.388;11.784;2023-04-29T00:21:26;12.71;78.30
68578;SHT31;61668;45.388;11.784;2023-04-29T00:23:52;12.70;78.40
68578;SHT31;61668;45.388;11.784;2023-04-29T00:26:18;12.70;78.41
68578;SHT31;61668;45.388;11.784;2023-04-29T00:28:44;12.70;78.44
68578;SHT31;61668;45.388;11.784;2023-04-29T00:31:09;12.70;78.52
68578;SHT31;61668;45.388;11.784;2023-04-29T00:33:35;12.71;78.59
68578;SHT31;61668;45.388;11.784;2023-04-29T00:36:01;12.72;78.63
68578;SHT31;61668;45.388;11.784;2023-04-29T00:38:27;12.72;78.75
68578;SHT31;61668;45.388;11.784;2023-04-29T00:40:53;12.71;78.80
68578;SHT31;61668;45.388;11.784;2023-04-29T00:43:21;12.72;78.80
68578;SHT31;61668;45.388;11.784;2023-04-29T00:45:47;12.74;78.80
68578;SHT31;61668;45.388;11.784;2023-04-29T00:48:13;12.74;78.81
68578;SHT31;61668;45.388;11.784;2023-04-29T00:50:40;12.76;78.81
68578;SHT31;61668;45.388;11.784;2023-04-29T00:53:06;12.78;78.74
68578;SHT31;61668;45.388;11.784;2023-04-29T00:55:39;12.79;78.76
68578;SHT31;61668;45.388;11.784;2023-04-29T00:58:08;12.82;78.90
68578;SHT31;61668;45.388;11.784;2023-04-29T01:00:34;12.82;78.77
68578;SHT31;61668;45.388;11.784;2023-04-29T01:03:01;12.83;78.64
68578;SHT31;61668;45.388;11.784;2023-04-29T01:05:29;12.82;78.60
68578;SHT31;61668;45.388;11.784;2023-04-29T01:10:53;12.82;78.50
68578;SHT31;61668;45.388;11.784;2023-04-29T01:13:42;12.83;78.60
68578;SHT31;61668;45.388;11.784;2023-04-29T01:19:33;12.83;78.62
68578;SHT31;61668;45.388;11.784;2023-04-29T01:22:15;12.84;78.76
68578;SHT31;61668;45.388;11.784;2023-04-29T01:24:42;12.84;78.70
68578;SHT31;61668;45.388;11.784;2023-04-29T01:33:02;12.88;78.50
68578;SHT31;61668;45.388;11.784;2023-04-29T01:35:43;12.88;78.42
68578;SHT31;61668;45.388;11.784;2023-04-29T01:38:25;12.88;78.35
68578;SHT31;61668;45.388;11.784;2023-04-29T01:44:26;12.89;78.28
68578;SHT31;61668;45.388;11.784;2023-04-29T01:46:53;12.88;78.21
68578;SHT31;61668;45.388;11.784;2023-04-29T01:49:20;12.89;78.20
68578;SHT31;61668;45.388;11.784;2023-04-29T01:51:59;12.90;78.20
68578;SHT31;61668;45.388;11.784;2023-04-29T01:54:25;12.90;78.20
68578;SHT31;61668;45.388;11.784;2023-04-29T01:56:51;12.90;78.20
68578;SHT31;61668;45.388;11.784;2023-04-29T01:59:16;12.89;78.11
68578;SHT31;61668;45.388;11.784;2023-04-29T02:01:42;12.89;78.10
68578;SHT31;61668;45.388;11.784;2023-04-29T02:04:07;12.88;78.02
68578;SHT31;61668;45.388;11.784;2023-04-29T02:06:33;12.86;77.97
68578;SHT31;61668;45.388;11.784;2023-04-29T02:08:58;12.86;78.02
68578;SHT31;61668;45.388;11.784;2023-04-29T02:11:24;12.84;78.09
68578;SHT31;61668;45.388;11.784;2023-04-29T02:13:50;12.85;78.08
68578;SHT31;61668;45.388;11.784;2023-04-29T02:16:15;12.85;78.13
68578;SHT31;61668;45.388;11.784;2023-04-29T02:18:42;12.84;78.10
68578;SHT31;61668;45.388;11.784;2023-04-29T02:21:08;12.84;78.03
68578;SHT31;61668;45.388;11.784;2023-04-29T02:23:34;12.84;78.03
68578;SHT31;61668;45.388;11.784;2023-04-29T02:26:00;12.84;78.08
68578;SHT31;61668;45.388;11.784;2023-04-29T02:28:25;12.85;78.15
68578;SHT31;61668;45.388;11.784;2023-04-29T02:30:51;12.85;78.10
68578;SHT31;61668;45.388;11.784;2023-04-29T02:33:17;12.87;78.06
68578;SHT31;61668;45.388;11.784;2023-04-29T02:35:43;12.87;78.05
68578;SHT31;61668;45.388;11.784;2023-04-29T02:38:09;12.87;78.06
68578;SHT31;61668;45.388;11.784;2023-04-29T02:40:42;12.87;78.10
68578;SHT31;61668;45.388;11.784;2023-04-29T02:43:09;12.88;78.05
68578;SHT31;61668;45.388;11.784;2023-04-29T02:45:36;12.89;77.98
68578;SHT31;61668;45.388;11.784;2023-04-29T02:48:03;12.90;77.99
68578;SHT31;61668;45.388;11.784;2023-04-29T02:50:29;12.89;77.91
68578;SHT31;61668;45.388;11.784;2023-04-29T02:52:55;12.88;77.90
68578;SHT31;61668;45.388;11.784;2023-04-29T02:55:21;12.88;77.79
68578;SHT31;61668;45.388;11.784;2023-04-29T02:57:47;12.88;77.77
68578;SHT31;61668;45.388;11.784;2023-04-29T03:00:13;12.86;77.73
68578;SHT31;61668;45.388;11.784;2023-04-29T03:02:38;12.86;77.71
68578;SHT31;61668;45.388;11.784;2023-04-29T03:05:04;12.86;77.69
68578;SHT31;61668;45.388;11.784;2023-04-29T03:07:30;12.85;77.74
68578;SHT31;61668;45.388;11.784;2023-04-29T03:09:56;12.83;77.72
68578;SHT31;61668;45.388;11.784;2023-04-29T03:12:22;12.81;77.78
68578;SHT31;61668;45.388;11.784;2023-04-29T03:14:48;12.80;77.88
68578;SHT31;61668;45.388;11.784;2023-04-29T03:17:13;12.80;77.90
68578;SHT31;61668;45.388;11.784;2023-04-29T03:19:39;12.80;77.94
68578;SHT31;61668;45.388;11.784;2023-04-29T03:22:05;12.79;77.96
68578;SHT31;61668;45.388;11.784;2023-04-29T03:24:34;12.77;78.05
68578;SHT31;61668;45.388;11.784;2023-04-29T03:26:59;12.75;78.11
68578;SHT31;61668;45.388;11.784;2023-04-29T03:29:25;12.73;78.14
68578;SHT31;61668;45.388;11.784;2023-04-29T03:31:52;12.73;78.18
68578;SHT31;61668;45.388;11.784;2023-04-29T03:34:18;12.73;78.22
68578;SHT31;61668;45.388;11.784;2023-04-29T03:36:44;12.71;78.26
68578;SHT31;61668;45.388;11.784;2023-04-29T03:39:10;12.71;78.27
68578;SHT31;61668;45.388;11.784;2023-04-29T03:41:36;12.72;78.20
68578;SHT31;61668;45.388;11.784;2023-04-29T03:44:02;12.71;78.13
68578;SHT31;61668;45.388;11.784;2023-04-29T03:46:29;12.72;78.10
68578;SHT31;61668;45.388;11.784;2023-04-29T03:48:55;12.71;78.07
68578;SHT31;61668;45.388;11.784;2023-04-29T03:51:25;12.69;78.00
68578;SHT31;61668;45.388;11.784;2023-04-29T03:53:51;12.68;78.00
68578;SHT31;61668;45.388;11.784;2023-04-29T03:56:20;12.69;78.00
68578;SHT31;61668;45.388;11.784;2023-04-29T03:58:47;12.69;77.98
68578;SHT31;61668;45.388;11.784;2023-04-29T04:01:13;12.70;77.91
68578;SHT31;61668;45.388;11.784;2023-04-29T04:03:39;12.70;77.82
68578;SHT31;61668;45.388;11.784;2023-04-29T04:06:07;12.68;77.77
68578;SHT31;61668;45.388;11.784;2023-04-29T04:08:33;12.69;77.68
68578;SHT31;61668;45.388;11.784;2023-04-29T04:10:59;12.69;77.61
68578;SHT31;61668;45.388;11.784;2023-04-29T04:13:30;12.69;77.61
68578;SHT31;61668;45.388;11.784;2023-04-29T04:15:57;12.68;77.60
68578;SHT31;61668;45.388;11.784;2023-04-29T04:18:23;12.68;77.63
68578;SHT31;61668;45.388;11.784;2023-04-29T04:20:49;12.69;77.54
68578;SHT31;61668;45.388;11.784;2023-04-29T04:23:14;12.69;77.52
68578;SHT31;61668;45.388;11.784;2023-04-29T04:25:44;12.71;77.52
68578;SHT31;61668;45.388;11.784;2023-04-29T04:28:11;12.72;77.54
68578;SHT31;61668;45.388;11.784;2023-04-29T04:30:37;12.72;77.53
68578;SHT31;61668;45.388;11.784;2023-04-29T04:33:03;12.72;77.57
68578;SHT31;61668;45.388;11.784;2023-04-29T04:35:28;12.73;77.63
68578;SHT31;61668;45.388;11.784;2023-04-29T04:37:54;12.72;77.69
68578;SHT31;61668;45.388;11.784;2023-04-29T04:40:19;12.73;77.75
68578;SHT31;61668;45.388;11.784;2023-04-29T04:42:45;12.73;77.68
68578;SHT31;61668;45.388;11.784;2023-04-29T04:45:11;12.73;77.65
68578;SHT31;61668;45.388;11.784;2023-04-29T04:47:38;12.74;77.70
68578;SHT31;61668;45.388;11.784;2023-04-29T04:50:05;12.74;77.72
68578;SHT31;61668;45.388;11.784;2023-04-29T04:52:33;12.74;77.71
68578;SHT31;61668;45.388;11.784;2023-04-29T04:54:59;12.74;77.69
68578;SHT31;61668;45.388;11.784;2023-04-29T04:57:25;12.75;77.76
68578;SHT31;61668;45.388;11.784;2023-04-29T04:59:51;12.75;77.90
68578;SHT31;61668;45.388;11.784;2023-04-29T05:02:17;12.75;77.94
68578;SHT31;61668;45.388;11.784;2023-04-29T05:04:42;12.76;77.99
68578;SHT31;61668;45.388;11.784;2023-04-29T05:07:08;12.78;78.06
68578;SHT31;61668;45.388;11.784;2023-04-29T05:09:37;12.80;78.05
68578;SHT31;61668;45.388;11.784;2023-04-29T05:12:02;12.82;77.93
68578;SHT31;61668;45.388;11.784;2023-04-29T05:14:28;12.86;77.92
68578;SHT31;61668;45.388;11.784;2023-04-29T05:16:57;12.89;78.01
68578;SHT31;61668;45.388;11.784;2023-04-29T05:19:24;12.93;77.96
68578;SHT31;61668;45.388;11.784;2023-04-29T05:21:50;12.96;77.94
68578;SHT31;61668;45.388;11.784;2023-04-29T05:24:16;13.00;77.83
68578;SHT31;61668;45.388;11.784;2023-04-29T05:26:42;13.02;77.52
68578;SHT31;61668;45.388;11.784;2023-04-29T05:29:08;13.04;77.31
68578;SHT31;61668;45.388;11.784;2023-04-29T05:31:35;13.07;77.22
68578;SHT31;61668;45.388;11.784;2023-04-29T05:34:03;13.11;77.01
68578;SHT31;61668;45.388;11.784;2023-04-29T05:36:29;13.14;76.94
68578;SHT31;61668;45.388;11.784;2023-04-29T05:38:55;13.17;76.77
68578;SHT31;61668;45.388;11.784;2023-04-29T05:41:21;13.22;76.63
68578;SHT31;61668;45.388;11.784;2023-04-29T05:43:49;13.25;76.49
68578;SHT31;61668;45.388;11.784;2023-04-29T05:46:15;13.29;76.33
68578;SHT31;61668;45.388;11.784;2023-04-29T05:48:42;13.34;76.05
68578;SHT31;61668;45.388;11.784;2023-04-29T05:51:07;13.40;75.78
68578;SHT31;61668;45.388;11.784;2023-04-29T05:53:33;13.46;75.67
68578;SHT31;61668;45.388;11.784;2023-04-29T05:56:00;13.53;75.58
68578;SHT31;61668;45.388;11.784;2023-04-29T05:58:30;13.60;75.36
68578;SHT31;61668;45.388;11.784;2023-04-29T06:00:56;13.69;75.33
68578;SHT31;61668;45.388;11.784;2023-04-29T06:03:21;13.77;75.22
68578;SHT31;61668;45.388;11.784;2023-04-29T06:05:47;13.85;75.20
68578;SHT31;61668;45.388;11.784;2023-04-29T06:08:13;13.94;74.89
68578;SHT31;61668;45.388;11.784;2023-04-29T06:10:39;14.01;74.68
68578;SHT31;61668;45.388;11.784;2023-04-29T06:13:05;14.06;74.20
68578;SHT31;61668;45.388;11.784;2023-04-29T06:15:30;14.09;74.01
68578;SHT31;61668;45.388;11.784;2023-04-29T06:17:57;14.12;73.86
68578;SHT31;61668;45.388;11.784;2023-04-29T06:20:23;14.13;73.64
68578;SHT31;61668;45.388;11.784;2023-04-29T06:22:48;14.15;73.57
68578;SHT31;61668;45.388;11.784;2023-04-29T06:25:14;14.16;73.61
68578;SHT31;61668;45.388;11.784;2023-04-29T06:27:40;14.19;73.59
68578;SHT31;61668;45.388;11.784;2023-04-29T06:30:06;14.23;73.48
68578;SHT31;61668;45.388;11.784;2023-04-29T06:32:33;14.25;73.22
68578;SHT31;61668;45.388;11.784;2023-04-29T06:34:58;14.29;73.02
68578;SHT31;61668;45.388;11.784;2023-04-29T06:37:25;14.33;72.98
68578;SHT31;61668;45.388;11.784;2023-04-29T06:39:52;14.37;72.96
68578;SHT31;61668;45.388;11.784;2023-04-29T06:42:18;14.41;72.91
68578;SHT31;61668;45.388;11.784;2023-04-29T06:44:44;14.44;72.85
68578;SHT31;61668;45.388;11.784;2023-04-29T06:47:10;14.50;72.85
68578;SHT31;61668;45.388;11.784;2023-04-29T06:49:35;14.53;72.71
68578;SHT31;61668;45.388;11.784;2023-04-29T06:52:01;14.58;72.74
68578;SHT31;61668;45.388;11.784;2023-04-29T06:54:27;14.64;72.66
68578;SHT31;61668;45.388;11.784;2023-04-29T06:56:53;14.71;72.51
68578;SHT31;61668;45.388;11.784;2023-04-29T06:59:19;14.78;72.57
68578;SHT31;61668;45.388;11.784;2023-04-29T07:01:44;14.84;72.62
68578;SHT31;61668;45.388;11.784;2023-04-29T07:04:10;14.91;72.50
68578;SHT31;61668;45.388;11.784;2023-04-29T07:06:36;14.99;72.39
68578;SHT31;61668;45.388;11.784;2023-04-29T07:09:02;15.06;72.20
68578;SHT31;61668;45.388;11.784;2023-04-29T07:11:28;15.13;71.96
68578;SHT31;61668;45.388;11.784;2023-04-29T07:13:54;15.20;71.86
68578;SHT31;61668;45.388;11.784;2023-04-29T07:16:20;15.28;71.70
68578;SHT31;61668;45.388;11.784;2023-04-29T07:18:46;15.34;71.46
68578;SHT31;61668;45.388;11.784;2023-04-29T07:21:13;15.42;71.46
68578;SHT31;61668;45.388;11.784;2023-04-29T07:23:39;15.53;71.30
68578;SHT31;61668;45.388;11.784;2023-04-29T07:26:11;15.68;71.29
68578;SHT31;61668;45.388;11.784;2023-04-29T07:28:39;15.85;70.87
68578;SHT31;61668;45.388;11.784;2023-04-29T07:31:06;15.94;70.31
68578;SHT31;61668;45.388;11.784;2023-04-29T07:33:33;16.02;70.04
68578;SHT31;61668;45.388;11.784;2023-04-29T07:36:00;16.14;70.02
68578;SHT31;61668;45.388;11.784;2023-04-29T07:38:27;16.24;69.50
68578;SHT31;61668;45.388;11.784;2023-04-29T07:40:53;16.36;69.07
68578;SHT31;61668;45.388;11.784;2023-04-29T07:43:20;16.49;68.87
68578;SHT31;61668;45.388;11.784;2023-04-29T07:45:46;16.59;68.58
68578;SHT31;61668;45.388;11.784;2023-04-29T07:48:12;16.63;68.39
68578;SHT31;61668;45.388;11.784;2023-04-29T07:50:38;16.67;68.54
68578;SHT31;61668;45.388;11.784;2023-04-29T07:53:04;16.69;68.47
68578;SHT31;61668;45.388;11.784;2023-04-29T07:55:30;16.70;68.48
68578;SHT31;61668;45.388;11.784;2023-04-29T07:57:56;16.75;68.40
68578;SHT31;61668;45.388;11.784;2023-04-29T08:00:23;16.85;68.19
68578;SHT31;61668;45.388;11.784;2023-04-29T08:02:52;17.02;68.08
68578;SHT31;61668;45.388;11.784;2023-04-29T08:05:19;17.24;67.76
68578;SHT31;61668;45.388;11.784;2023-04-29T08:07:46;17.56;67.66
68578;SHT31;61668;45.388;11.784;2023-04-29T08:10:13;18.10;66.91
68578;SHT31;61668;45.388;11.784;2023-04-29T08:12:40;18.36;66.55
68578;SHT31;61668;45.388;11.784;2023-04-29T08:15:06;18.48;66.08
68578;SHT31;61668;45.388;11.784;2023-04-29T08:17:32;18.58;66.07
68578;SHT31;61668;45.388;11.784;2023-04-29T08:19:58;18.89;65.37
68578;SHT31;61668;45.388;11.784;2023-04-29T08:22:24;19.57;64.69
68578;SHT31;61668;45.388;11.784;2023-04-29T08:24:49;20.15;63.62
68578;SHT31;61668;45.388;11.784;2023-04-29T08:27:16;20.39;62.77
68578;SHT31;61668;45.388;11.784;2023-04-29T08:29:41;20.48;62.46
68578;SHT31;61668;45.388;11.784;2023-04-29T08:32:07;20.37;62.38
68578;SHT31;61668;45.388;11.784;2023-04-29T08:34:33;20.24;62.30
68578;SHT31;61668;45.388;11.784;2023-04-29T08:37:00;20.15;62.15
68578;SHT31;61668;45.388;11.784;2023-04-29T08:39:27;20.04;61.82
68578;SHT31;61668;45.388;11.784;2023-04-29T08:41:57;19.89;61.60
68578;SHT31;61668;45.388;11.784;2023-04-29T08:44:27;19.77;62.08
68578;SHT31;61668;45.388;11.784;2023-04-29T08:46:54;19.77;62.37
68578;SHT31;61668;45.388;11.784;2023-04-29T08:49:21;19.82;62.23
68578;SHT31;61668;45.388;11.784;2023-04-29T08:51:47;19.87;62.14
68578;SHT31;61668;45.388;11.784;2023-04-29T08:54:16;19.92;61.83
68578;SHT31;61668;45.388;11.784;2023-04-29T08:56:44;19.85;61.14
68578;SHT31;61668;45.388;11.784;2023-04-29T08:59:12;19.80;61.16
68578;SHT31;61668;45.388;11.784;2023-04-29T09:01:43;19.83;61.29
68578;SHT31;61668;45.388;11.784;2023-04-29T09:07:15;20.15;61.15
68578;SHT31;61668;45.388;11.784;2023-04-29T09:09:41;20.36;60.56
68578;SHT31;61668;45.388;11.784;2023-04-29T09:12:08;20.57;60.22
68578;SHT31;61668;45.388;11.784;2023-04-29T09:14:34;20.76;59.36
68578;SHT31;61668;45.388;11.784;2023-04-29T09:17:01;20.81;58.84
68578;SHT31;61668;45.388;11.784;2023-04-29T09:19:30;20.87;58.56
68578;SHT31;61668;45.388;11.784;2023-04-29T09:22:01;20.95;58.16
68578;SHT31;61668;45.388;11.784;2023-04-29T09:24:29;21.14;57.93
68578;SHT31;61668;45.388;11.784;2023-04-29T09:26:56;21.34;57.63
68578;SHT31;61668;45.388;11.784;2023-04-29T09:29:22;21.48;56.77
68578;SHT31;61668;45.388;11.784;2023-04-29T09:31:49;21.61;56.34
68578;SHT31;61668;45.388;11.784;2023-04-29T09:34:29;21.72;56.22
68578;SHT31;61668;45.388;11.784;2023-04-29T09:37:06;21.86;56.05
68578;SHT31;61668;45.388;11.784;2023-04-29T09:39:50;22.09;55.69
68578;SHT31;61668;45.388;11.784;2023-04-29T09:42:16;22.24;55.14
68578;SHT31;61668;45.388;11.784;2023-04-29T09:44:42;22.34;54.13
68578;SHT31;61668;45.388;11.784;2023-04-29T09:47:09;22.34;54.01
68578;SHT31;61668;45.388;11.784;2023-04-29T09:49:41;22.43;53.94
68578;SHT31;61668;45.388;11.784;2023-04-29T09:52:10;22.55;53.61
68578;SHT31;61668;45.388;11.784;2023-04-29T09:54:39;22.66;53.24
68578;SHT31;61668;45.388;11.784;2023-04-29T09:57:07;22.76;52.16
68578;SHT31;61668;45.388;11.784;2023-04-29T09:59:39;22.94;52.30
68578;SHT31;61668;45.388;11.784;2023-04-29T10:02:12;23.04;52.18
68578;SHT31;61668;45.388;11.784;2023-04-29T10:04:43;23.05;51.38
68578;SHT31;61668;45.388;11.784;2023-04-29T10:07:15;23.01;51.52
68578;SHT31;61668;45.388;11.784;2023-04-29T10:09:43;22.94;51.37
68578;SHT31;61668;45.388;11.784;2023-04-29T10:12:11;22.88;51.07
68578;SHT31;61668;45.388;11.784;2023-04-29T10:14:47;22.71;50.47
68578;SHT31;61668;45.388;11.784;2023-04-29T10:17:23;22.63;50.55
68578;SHT31;61668;45.388;11.784;2023-04-29T10:20:14;22.62;50.79
68578;SHT31;61668;45.388;11.784;2023-04-29T10:22:50;22.63;50.76
68578;SHT31;61668;45.388;11.784;2023-04-29T10:25:19;22.67;50.24
68578;SHT31;61668;45.388;11.784;2023-04-29T10:27:47;22.76;50.17
68578;SHT31;61668;45.388;11.784;2023-04-29T10:30:18;22.93;50.20
68578;SHT31;61668;45.388;11.784;2023-04-29T10:32:45;23.18;49.84
68578;SHT31;61668;45.388;11.784;2023-04-29T10:35:14;23.30;49.70
68578;SHT31;61668;45.388;11.784;2023-04-29T10:37:43;23.31;49.32
68578;SHT31;61668;45.388;11.784;2023-04-29T10:42:46;23.30;48.50
68578;SHT31;61668;45.388;11.784;2023-04-29T10:50:33;23.89;47.42
68578;SHT31;61668;45.388;11.784;2023-04-29T10:53:11;23.96;45.78
68578;SHT31;61668;45.388;11.784;2023-04-29T10:55:41;23.95;45.01
68578;SHT31;61668;45.388;11.784;2023-04-29T11:01:05;24.29;45.02
68578;SHT31;61668;45.388;11.784;2023-04-29T11:03:48;24.41;45.01
68578;SHT31;61668;45.388;11.784;2023-04-29T11:06:24;24.39;44.97
68578;SHT31;61668;45.388;11.784;2023-04-29T11:14:14;24.56;43.91
68578;SHT31;61668;45.388;11.784;2023-04-29T11:17:19;24.67;43.48
68578;SHT31;61668;45.388;11.784;2023-04-29T11:19:40;24.89;43.49
68578;SHT31;61668;45.388;11.784;2023-04-29T11:24:56;25.04;43.91
68578;SHT31;61668;45.388;11.784;2023-04-29T11:27:28;25.07;44.72
68578;SHT31;61668;45.388;11.784;2023-04-29T11:29:57;24.98;44.41
68578;SHT31;61668;45.388;11.784;2023-04-29T11:32:25;24.81;44.55
68578;SHT31;61668;45.388;11.784;2023-04-29T11:37:36;24.94;44.74
68578;SHT31;61668;45.388;11.784;2023-04-29T11:40:04;24.85;44.59
68578;SHT31;61668;45.388;11.784;2023-04-29T11:42:33;24.90;44.80
68578;SHT31;61668;45.388;11.784;2023-04-29T11:45:00;24.93;44.42
68578;SHT31;61668;45.388;11.784;2023-04-29T11:47:29;24.95;44.28
68578;SHT31;61668;45.388;11.784;2023-04-29T11:50:05;25.00;44.48
68578;SHT31;61668;45.388;11.784;2023-04-29T11:52:34;25.04;44.26
68578;SHT31;61668;45.388;11.784;2023-04-29T11:55:01;25.01;44.03
68578;SHT31;61668;45.388;11.784;2023-04-29T11:57:29;25.00;44.43
68578;SHT31;61668;45.388;11.784;2023-04-29T11:59:58;24.99;44.62
68578;SHT31;61668;45.388;11.784;2023-04-29T12:02:30;25.10;44.60
68578;SHT31;61668;45.388;11.784;2023-04-29T12:04:57;25.23;44.50
68578;SHT31;61668;45.388;11.784;2023-04-29T12:07:25;25.25;44.11
68578;SHT31;61668;45.388;11.784;2023-04-29T12:09:51;25.28;44.16
68578;SHT31;61668;45.388;11.784;2023-04-29T12:12:17;25.34;43.84
68578;SHT31;61668;45.388;11.784;2023-04-29T12:14:44;25.39;43.84
68578;SHT31;61668;45.388;11.784;2023-04-29T12:17:10;25.36;43.91
68578;SHT31;61668;45.388;11.784;2023-04-29T12:19:37;25.30;43.82
68578;SHT31;61668;45.388;11.784;2023-04-29T12:22:04;25.20;43.74
68578;SHT31;61668;45.388;11.784;2023-04-29T12:24:34;25.17;44.28
68578;SHT31;61668;45.388;11.784;2023-04-29T12:27:02;25.23;44.38
68578;SHT31;61668;45.388;11.784;2023-04-29T12:29:30;25.28;44.45
68578;SHT31;61668;45.388;11.784;2023-04-29T12:31:57;25.29;44.25
68578;SHT31;61668;45.388;11.784;2023-04-29T12:34:23;25.31;44.09
68578;SHT31;61668;45.388;11.784;2023-04-29T12:36:53;25.35;43.42
68578;SHT31;61668;45.388;11.784;2023-04-29T12:39:22;25.39;43.47
68578;SHT31;61668;45.388;11.784;2023-04-29T12:41:48;25.43;43.17
68578;SHT31;61668;45.388;11.784;2023-04-29T12:44:20;25.50;43.29
68578;SHT31;61668;45.388;11.784;2023-04-29T12:46:46;25.55;42.89
68578;SHT31;61668;45.388;11.784;2023-04-29T12:49:11;25.52;42.80
68578;SHT31;61668;45.388;11.784;2023-04-29T12:51:37;25.47;42.80
68578;SHT31;61668;45.388;11.784;2023-04-29T12:54:03;25.48;42.89
68578;SHT31;61668;45.388;11.784;2023-04-29T12:56:31;25.48;43.04
68578;SHT31;61668;45.388;11.784;2023-04-29T12:59:04;25.46;43.32
68578;SHT31;61668;45.388;11.784;2023-04-29T13:01:31;25.50;43.63
68578;SHT31;61668;45.388;11.784;2023-04-29T13:03:57;25.55;42.87
68578;SHT31;61668;45.388;11.784;2023-04-29T13:06:23;25.54;42.68
68578;SHT31;61668;45.388;11.784;2023-04-29T13:08:48;25.47;42.77
68578;SHT31;61668;45.388;11.784;2023-04-29T13:11:16;25.47;42.68
68578;SHT31;61668;45.388;11.784;2023-04-29T13:13:42;25.47;42.71
68578;SHT31;61668;45.388;11.784;2023-04-29T13:16:07;25.42;42.61
68578;SHT31;61668;45.388;11.784;2023-04-29T13:18:34;25.33;42.22
68578;SHT31;61668;45.388;11.784;2023-04-29T13:21:00;25.30;42.35
68578;SHT31;61668;45.388;11.784;2023-04-29T13:23:26;25.34;42.87
68578;SHT31;61668;45.388;11.784;2023-04-29T13:25:51;25.29;43.14
68578;SHT31;61668;45.388;11.784;2023-04-29T13:28:17;25.23;43.32
68578;SHT31;61668;45.388;11.784;2023-04-29T13:30:43;25.21;43.22
68578;SHT31;61668;45.388;11.784;2023-04-29T13:33:09;25.25;43.30
68578;SHT31;61668;45.388;11.784;2023-04-29T13:35:35;25.30;42.74
68578;SHT31;61668;45.388;11.784;2023-04-29T13:38:02;25.34;43.07
68578;SHT31;61668;45.388;11.784;2023-04-29T13:40:29;25.37;43.07
68578;SHT31;61668;45.388;11.784;2023-04-29T13:42:55;25.37;43.03
68578;SHT31;61668;45.388;11.784;2023-04-29T13:45:21;25.32;42.77
68578;SHT31;61668;45.388;11.784;2023-04-29T13:47:47;25.17;42.96
68578;SHT31;61668;45.388;11.784;2023-04-29T13:50:12;25.04;43.21
68578;SHT31;61668;45.388;11.784;2023-04-29T13:52:39;24.95;43.57
68578;SHT31;61668;45.388;11.784;2023-04-29T13:55:04;24.81;43.56
68578;SHT31;61668;45.388;11.784;2023-04-29T13:57:31;24.73;43.91
68578;SHT31;61668;45.388;11.784;2023-04-29T13:59:58;24.71;43.97
68578;SHT31;61668;45.388;11.784;2023-04-29T14:02:23;24.67;43.87
68578;SHT31;61668;45.388;11.784;2023-04-29T14:04:49;24.65;44.12
68578;SHT31;61668;45.388;11.784;2023-04-29T14:07:15;24.65;44.14
68578;SHT31;61668;45.388;11.784;2023-04-29T14:09:41;24.59;44.10
68578;SHT31;61668;45.388;11.784;2023-04-29T14:12:07;24.54;44.38
68578;SHT31;61668;45.388;11.784;2023-04-29T14:14:33;24.53;44.62
68578;SHT31;61668;45.388;11.784;2023-04-29T14:16:59;24.47;44.84
68578;SHT31;61668;45.388;11.784;2023-04-29T14:19:25;24.35;44.75
68578;SHT31;61668;45.388;11.784;2023-04-29T14:21:51;24.24;45.26
68578;SHT31;61668;45.388;11.784;2023-04-29T14:24:17;24.19;45.50
68578;SHT31;61668;45.388;11.784;2023-04-29T14:26:43;24.18;45.20
68578;SHT31;61668;45.388;11.784;2023-04-29T14:29:09;24.17;45.41
68578;SHT31;61668;45.388;11.784;2023-04-29T14:31:35;24.17;45.61
68578;SHT31;61668;45.388;11.784;2023-04-29T14:34:02;24.14;45.52
68578;SHT31;61668;45.388;11.784;2023-04-29T14:36:28;24.09;45.62
68578;SHT31;61668;45.388;11.784;2023-04-29T14:38:57;24.08;45.65
68578;SHT31;61668;45.388;11.784;2023-04-29T14:41:24;24.04;45.80
68578;SHT31;61668;45.388;11.784;2023-04-29T14:43:50;24.01;45.92
68578;SHT31;61668;45.388;11.784;2023-04-29T14:46:16;24.03;46.00
68578;SHT31;61668;45.388;11.784;2023-04-29T14:48:42;24.09;46.18
68578;SHT31;61668;45.388;11.784;2023-04-29T14:51:08;24.19;46.03
68578;SHT31;61668;45.388;11.784;2023-04-29T14:53:34;24.21;45.77
68578;SHT31;61668;45.388;11.784;2023-04-29T14:56:00;24.19;45.96
68578;SHT31;61668;45.388;11.784;2023-04-29T14:58:26;24.20;46.21
68578;SHT31;61668;45.388;11.784;2023-04-29T15:00:52;24.22;46.53
68578;SHT31;61668;45.388;11.784;2023-04-29T15:03:17;24.17;46.19
68578;SHT31;61668;45.388;11.784;2023-04-29T15:05:43;24.08;46.24
68578;SHT31;61668;45.388;11.784;2023-04-29T15:08:09;24.01;46.31
68578;SHT31;61668;45.388;11.784;2023-04-29T15:10:35;23.95;46.54
68578;SHT31;61668;45.388;11.784;2023-04-29T15:13:01;23.88;46.54
68578;SHT31;61668;45.388;11.784;2023-04-29T15:15:28;23.81;46.76
68578;SHT31;61668;45.388;11.784;2023-04-29T15:17:54;23.80;47.10
68578;SHT31;61668;45.388;11.784;2023-04-29T15:20:20;23.77;46.80
68578;SHT31;61668;45.388;11.784;2023-04-29T15:22:46;23.76;46.89
68578;SHT31;61668;45.388;11.784;2023-04-29T15:27:40;23.77;47.04
68578;SHT31;61668;45.388;11.784;2023-04-29T15:30:06;23.79;47.11
68578;SHT31;61668;45.388;11.784;2023-04-29T15:32:32;23.77;47.11
68578;SHT31;61668;45.388;11.784;2023-04-29T15:35:02;23.72;47.33
68578;SHT31;61668;45.388;11.784;2023-04-29T15:37:28;23.71;47.63
68578;SHT31;61668;45.388;11.784;2023-04-29T15:39:55;23.66;47.53
68578;SHT31;61668;45.388;11.784;2023-04-29T15:42:23;23.58;47.67
68578;SHT31;61668;45.388;11.784;2023-04-29T15:44:49;23.49;47.97
68578;SHT31;61668;45.388;11.784;2023-04-29T15:47:14;23.43;48.04
68578;SHT31;61668;45.388;11.784;2023-04-29T15:49:40;23.40;48.23
68578;SHT31;61668;45.388;11.784;2023-04-29T15:52:07;23.34;48.17
68578;SHT31;61668;45.388;11.784;2023-04-29T15:54:33;23.37;48.26
68578;SHT31;61668;45.388;11.784;2023-04-29T15:57:00;23.37;48.25
68578;SHT31;61668;45.388;11.784;2023-04-29T15:59:29;23.29;48.41